createdAt,value
2018-07-12T00:01:54.208Z,65.90
2018-07-12T00:04:22.682Z,65.60
2018-07-12T00:06:50.396Z,65.80
2018-07-12T00:09:18.138Z,65.70
2018-07-12T00:11:45.938Z,65.90
2018-07-12T00:14:13.794Z,66.80
2018-07-12T00:16:41.526Z,65.80
2018-07-12T00:19:09.298Z,65.80
2018-07-12T00:21:37.034Z,65.80
2018-07-12T00:24:04.781Z,65.50
2018-07-12T00:26:32.526Z,65.60
2018-07-12T00:29:00.285Z,65.40
2018-07-12T00:31:28.030Z,65.90
2018-07-12T00:33:55.750Z,65.90
2018-07-12T00:36:23.481Z,66.20
2018-07-12T00:38:51.228Z,66.30
2018-07-12T00:41:19.005Z,66.90
2018-07-12T00:43:46.776Z,66.70
2018-07-12T00:46:14.534Z,67.10
2018-07-12T00:48:42.291Z,67.60
2018-07-12T00:51:10.045Z,66.70
2018-07-12T00:53:37.881Z,67.30
2018-07-12T00:56:05.612Z,67.40
2018-07-12T00:58:33.354Z,67.70
2018-07-12T01:01:01.148Z,67.40
2018-07-12T01:03:28.869Z,67.40
2018-07-12T01:05:56.641Z,67.40
2018-07-12T01:08:24.405Z,67.50
2018-07-12T01:10:52.130Z,67.40
2018-07-12T01:13:19.855Z,67.60
2018-07-12T01:15:47.656Z,67.50
2018-07-12T01:18:15.381Z,67.70
2018-07-12T01:20:43.131Z,67.60
2018-07-12T01:23:10.948Z,67.60
2018-07-12T01:25:38.678Z,68.20
2018-07-12T01:28:06.447Z,67.40
2018-07-12T01:30:34.190Z,67.70
2018-07-12T01:33:02.264Z,67.60
2018-07-12T01:35:29.973Z,67.50
2018-07-12T01:37:57.717Z,67.60
2018-07-12T01:40:25.459Z,67.30
2018-07-12T01:45:21.301Z,67.40
2018-07-12T01:47:49.087Z,67.20
2018-07-12T01:50:16.871Z,67.60
2018-07-12T01:55:12.854Z,67.70
2018-07-12T01:57:40.578Z,67.70
2018-07-12T02:00:08.334Z,67.50
2018-07-12T02:02:36.110Z,67.20
2018-07-12T02:05:03.861Z,67.50
2018-07-12T02:07:31.598Z,67.40
2018-07-12T02:09:59.647Z,67.80
2018-07-12T02:12:27.390Z,67.80
2018-07-12T02:14:55.129Z,68.00
2018-07-12T02:17:22.854Z,68.30
2018-07-12T02:19:50.581Z,69.40
2018-07-12T02:22:18.420Z,68.40
2018-07-12T02:24:46.169Z,69.30
2018-07-12T02:27:13.951Z,68.90
2018-07-12T02:29:41.750Z,69.10
2018-07-12T02:32:09.505Z,69.10
2018-07-12T02:34:37.259Z,69.30
2018-07-12T02:37:05.042Z,69.70
2018-07-12T02:39:32.793Z,69.60
2018-07-12T02:42:00.540Z,69.30
2018-07-12T02:44:28.295Z,69.40
2018-07-12T02:46:56.025Z,69.30
2018-07-12T02:49:23.764Z,69.60
2018-07-12T02:51:51.614Z,69.40
2018-07-12T02:54:19.385Z,69.30
2018-07-12T02:56:47.167Z,69.70
2018-07-12T02:59:14.917Z,69.60
2018-07-12T03:01:42.663Z,69.60
2018-07-12T03:04:10.379Z,69.30
2018-07-12T03:06:38.169Z,69.50
2018-07-12T03:09:07.066Z,69.40
2018-07-12T03:11:35.159Z,68.80
2018-07-12T03:14:02.993Z,69.30
2018-07-12T03:16:30.871Z,69.00
2018-07-12T03:18:58.785Z,68.50
2018-07-12T03:21:26.588Z,68.30
2018-07-12T03:23:54.345Z,68.40
2018-07-12T03:26:22.724Z,68.60
2018-07-12T03:28:50.488Z,68.80
2018-07-12T03:31:18.235Z,69.00
2018-07-12T03:33:45.970Z,69.40
2018-07-12T03:36:13.722Z,69.30
2018-07-12T03:38:41.586Z,69.60
2018-07-12T03:41:09.319Z,70.30
2018-07-12T03:43:37.089Z,70.30
2018-07-12T03:46:04.915Z,70.60
2018-07-12T03:48:32.707Z,70.80
2018-07-12T03:51:00.426Z,70.80
2018-07-12T03:53:28.152Z,71.10
2018-07-12T03:55:55.913Z,71.10
2018-07-12T03:58:23.663Z,71.60
2018-07-12T04:00:51.686Z,72.00
2018-07-12T04:03:19.454Z,72.20
2018-07-12T04:05:47.232Z,72.20
2018-07-12T04:08:15.055Z,72.80
2018-07-12T04:10:42.805Z,73.20
2018-07-12T04:13:10.547Z,73.30
2018-07-12T04:15:38.274Z,73.10
2018-07-12T04:18:06.027Z,73.00
2018-07-12T04:20:33.769Z,73.80
2018-07-12T04:23:01.521Z,73.30
2018-07-12T04:25:29.288Z,73.70
2018-07-12T04:27:57.037Z,73.80
2018-07-12T04:30:24.766Z,74.20
2018-07-12T04:32:52.513Z,74.50
2018-07-12T04:35:20.333Z,74.70
2018-07-12T04:37:48.117Z,75.10
2018-07-12T04:40:15.867Z,74.70
2018-07-12T04:42:43.622Z,74.70
2018-07-12T04:45:11.396Z,75.00
2018-07-12T04:47:39.160Z,74.90
2018-07-12T04:50:06.902Z,75.20
2018-07-12T04:52:35.936Z,75.40
2018-07-12T04:55:03.654Z,75.40
2018-07-12T04:57:31.418Z,75.20
2018-07-12T04:59:59.150Z,75.40
2018-07-12T05:02:28.443Z,75.50
2018-07-12T05:04:56.176Z,75.60
2018-07-12T05:07:23.934Z,75.40
2018-07-12T05:09:51.667Z,75.20
2018-07-12T05:12:19.751Z,75.20
2018-07-12T05:14:47.503Z,75.10
2018-07-12T05:17:15.383Z,74.10
2018-07-12T05:19:43.187Z,73.70
2018-07-12T05:22:10.933Z,73.50
2018-07-12T05:24:38.672Z,72.80
2018-07-12T05:27:06.554Z,72.90
2018-07-12T05:29:34.285Z,71.50
2018-07-12T05:32:02.020Z,70.60
2018-07-12T05:34:29.773Z,70.50
2018-07-12T05:37:01.159Z,70.70
2018-07-12T05:39:30.615Z,70.50
2018-07-12T05:41:59.999Z,70.40
2018-07-12T05:44:35.649Z,70.20
2018-07-12T05:47:05.116Z,70.10
2018-07-12T05:49:34.707Z,69.30
2018-07-12T05:52:04.066Z,69.50
2018-07-12T05:54:33.419Z,68.90
2018-07-12T05:57:02.807Z,69.20
2018-07-12T05:59:32.271Z,69.40
2018-07-12T06:02:14.486Z,69.20
2018-07-12T06:04:43.840Z,68.30
2018-07-12T06:07:13.360Z,68.20
2018-07-12T06:09:42.827Z,66.60
2018-07-12T06:12:12.372Z,67.00
2018-07-12T06:14:41.877Z,67.20
2018-07-12T06:17:11.293Z,65.30
2018-07-12T06:19:40.747Z,65.00
2018-07-12T06:22:10.186Z,63.90
2018-07-12T06:24:40.127Z,65.00
2018-07-12T06:27:09.586Z,64.80
2018-07-12T06:29:39.066Z,64.20
2018-07-12T06:32:08.645Z,63.20
2018-07-12T06:34:38.063Z,63.80
2018-07-12T06:37:07.520Z,63.80
2018-07-12T06:39:36.899Z,63.70
2018-07-12T06:42:06.394Z,63.30
2018-07-12T06:44:35.788Z,62.50
2018-07-12T06:47:12.622Z,62.20
2018-07-12T06:49:42.061Z,62.20
2018-07-12T06:52:11.638Z,62.30
2018-07-12T06:54:41.203Z,61.70
2018-07-12T06:57:10.696Z,61.70
2018-07-12T06:59:40.139Z,60.50
2018-07-12T07:02:09.587Z,60.20
2018-07-12T07:04:39.005Z,60.90
2018-07-12T07:07:08.789Z,59.50
2018-07-12T07:09:38.168Z,59.50
2018-07-12T07:14:36.952Z,59.00
2018-07-12T07:17:06.375Z,58.10
2018-07-12T07:19:36.697Z,59.00
2018-07-12T07:22:06.174Z,59.20
2018-07-12T07:24:35.551Z,59.30
2018-07-12T07:27:04.963Z,57.90
2018-07-12T07:29:34.313Z,57.50
2018-07-12T07:32:03.727Z,57.60
2018-07-12T07:37:02.206Z,58.60
2018-07-12T07:39:31.565Z,58.20
2018-07-12T07:42:01.091Z,57.90
2018-07-12T07:44:30.462Z,57.70
2018-07-12T07:46:59.810Z,58.40
2018-07-12T07:49:29.209Z,57.30
2018-07-12T07:51:58.573Z,57.60
2018-07-12T07:54:27.933Z,57.90
2018-07-12T07:56:57.288Z,57.90
2018-07-12T07:59:26.587Z,57.80
2018-07-12T08:01:55.988Z,55.50
2018-07-12T08:04:25.391Z,56.00
2018-07-12T08:06:54.771Z,55.50
2018-07-12T08:09:24.186Z,54.80
2018-07-12T08:11:53.770Z,55.70
2018-07-12T08:14:23.189Z,56.10
2018-07-12T08:16:52.590Z,56.00
2018-07-12T08:19:22.009Z,54.30
2018-07-12T08:22:01.962Z,52.70
2018-07-12T08:24:31.378Z,52.50
2018-07-12T08:27:00.733Z,53.00
2018-07-12T08:29:30.469Z,53.30
2018-07-12T08:32:00.065Z,53.70
2018-07-12T08:34:29.458Z,54.80
2018-07-12T08:36:58.895Z,56.20
2018-07-12T08:39:28.240Z,56.20
2018-07-12T08:41:57.699Z,54.00
2018-07-12T08:44:27.066Z,55.00
2018-07-12T08:46:56.578Z,53.70
2018-07-12T08:49:25.921Z,52.70
2018-07-12T08:51:55.322Z,53.50
2018-07-12T08:54:25.003Z,52.40
2018-07-12T08:56:54.404Z,51.80
2018-07-12T08:59:24.742Z,53.00
2018-07-12T09:01:54.894Z,52.30
2018-07-12T09:04:24.296Z,53.20
2018-07-12T09:06:53.788Z,53.10
2018-07-12T09:09:23.259Z,53.20
2018-07-12T09:11:52.724Z,54.10
2018-07-12T09:14:22.148Z,53.30
2018-07-12T09:16:51.621Z,54.70
2018-07-12T09:19:21.369Z,56.50
2018-07-12T09:21:50.866Z,55.90
2018-07-12T09:24:20.271Z,58.40
2018-07-12T09:26:49.695Z,54.40
2018-07-12T09:29:19.179Z,53.10
2018-07-12T09:31:48.486Z,53.70
2018-07-12T09:34:18.006Z,51.70
2018-07-12T09:36:47.491Z,52.10
2018-07-12T09:39:16.917Z,53.90
2018-07-12T09:41:46.311Z,54.30
2018-07-12T09:44:15.684Z,54.40
2018-07-12T09:46:45.095Z,54.50
2018-07-12T09:49:14.742Z,52.40
2018-07-12T09:51:43.911Z,52.20
2018-07-12T09:54:13.322Z,52.80
2018-07-12T09:56:59.416Z,52.00
2018-07-12T09:59:28.859Z,52.70
2018-07-12T10:02:03.630Z,52.40
2018-07-12T10:04:33.070Z,51.90
2018-07-12T10:07:07.704Z,53.10
2018-07-12T10:09:42.274Z,50.80
2018-07-12T10:12:15.742Z,50.70
2018-07-12T10:14:51.058Z,53.70
2018-07-12T10:17:25.631Z,53.00
2018-07-12T10:19:55.037Z,51.00
2018-07-12T10:22:24.400Z,54.60
2018-07-12T10:24:53.754Z,52.70
2018-07-12T10:29:52.832Z,53.20
2018-07-12T10:32:22.252Z,54.10
2018-07-12T10:34:51.756Z,50.70
2018-07-12T10:37:21.222Z,51.60
2018-07-12T10:39:50.675Z,52.70
2018-07-12T10:42:20.174Z,52.00
2018-07-12T10:44:49.698Z,52.40
2018-07-12T10:47:19.174Z,54.00
2018-07-12T10:49:48.536Z,53.40
2018-07-12T10:52:18.092Z,53.40
2018-07-12T10:54:47.612Z,52.40
2018-07-12T10:57:16.990Z,52.40
2018-07-12T10:59:46.389Z,53.90
2018-07-12T11:02:15.770Z,54.80
2018-07-12T11:04:45.167Z,55.60
2018-07-12T11:07:14.526Z,56.50
2018-07-12T11:09:44.897Z,56.40
2018-07-12T11:12:14.246Z,56.00
2018-07-12T11:14:43.605Z,54.80
2018-07-12T11:17:13.491Z,56.10
2018-07-12T11:19:42.878Z,54.50
2018-07-12T11:22:12.255Z,56.30
2018-07-12T11:24:41.650Z,57.10
2018-07-12T11:27:11.069Z,56.20
2018-07-12T11:29:53.644Z,55.50
2018-07-12T11:32:23.163Z,57.00
2018-07-12T11:34:52.629Z,54.50
2018-07-12T11:37:28.429Z,55.20
2018-07-12T11:39:57.878Z,56.40
2018-07-12T11:42:27.280Z,57.80
2018-07-12T11:44:56.868Z,57.40
2018-07-12T11:47:26.351Z,60.80
2018-07-12T11:49:55.793Z,57.60
2018-07-12T11:52:25.149Z,58.70
2018-07-12T11:54:54.680Z,56.30
2018-07-12T11:57:24.081Z,58.90
2018-07-12T11:59:53.989Z,57.30
2018-07-12T12:02:23.464Z,57.70
2018-07-12T12:04:52.915Z,55.60
2018-07-12T12:07:22.478Z,54.40
2018-07-12T12:09:51.880Z,54.00
2018-07-12T12:12:21.265Z,54.90
2018-07-12T12:14:50.800Z,54.50
2018-07-12T12:17:20.268Z,56.00
2018-07-12T12:19:49.697Z,54.80
2018-07-12T12:22:19.073Z,54.10
2018-07-12T12:24:48.425Z,54.50
2018-07-12T12:27:17.889Z,54.00
2018-07-12T12:29:47.309Z,55.40
2018-07-12T12:32:16.759Z,53.10
2018-07-12T12:34:46.153Z,54.70
2018-07-12T12:37:15.621Z,54.70
2018-07-12T12:39:44.947Z,54.10
2018-07-12T12:42:14.537Z,53.00
2018-07-12T12:44:43.953Z,52.30
2018-07-12T12:47:13.354Z,52.60
2018-07-12T12:49:42.789Z,52.10
2018-07-12T12:52:12.185Z,51.60
2018-07-12T12:54:41.525Z,55.00
2018-07-12T12:57:10.949Z,53.20
2018-07-12T12:59:40.361Z,52.50
2018-07-12T13:02:09.773Z,53.50
2018-07-12T13:04:39.279Z,52.80
2018-07-12T13:07:08.676Z,53.50
2018-07-12T13:09:38.532Z,53.80
2018-07-12T13:12:07.935Z,53.40
2018-07-12T13:14:37.287Z,53.20
2018-07-12T13:17:06.829Z,54.60
2018-07-12T13:19:36.224Z,55.10
2018-07-12T13:22:05.601Z,53.70
2018-07-12T13:24:34.955Z,54.00
2018-07-12T13:27:04.321Z,55.80
2018-07-12T13:29:33.789Z,56.20
2018-07-12T13:32:03.194Z,54.80
2018-07-12T13:37:02.787Z,52.20
2018-07-12T13:39:32.402Z,51.20
2018-07-12T13:42:01.761Z,53.60
2018-07-12T13:44:31.109Z,53.90
2018-07-12T13:49:29.592Z,52.50
2018-07-12T13:51:58.992Z,53.10
2018-07-12T13:54:28.339Z,51.90
2018-07-12T13:56:57.719Z,53.90
2018-07-12T13:59:27.064Z,53.30
2018-07-12T14:01:56.450Z,51.60
2018-07-12T14:04:25.874Z,51.30
2018-07-12T14:06:55.383Z,51.60
2018-07-12T14:09:25.629Z,52.60
2018-07-12T14:11:55.106Z,52.80
2018-07-12T14:14:24.514Z,52.20
2018-07-12T14:16:53.960Z,51.80
2018-07-12T14:19:23.386Z,52.30
2018-07-12T14:21:53.118Z,53.60
2018-07-12T14:24:22.552Z,52.30
2018-07-12T14:26:51.916Z,51.20
2018-07-12T14:29:21.616Z,51.80
2018-07-12T14:31:51.047Z,51.20
2018-07-12T14:34:20.549Z,52.60
2018-07-12T14:36:49.995Z,50.90
2018-07-12T14:39:19.421Z,52.90
2018-07-12T14:41:48.856Z,53.90
2018-07-12T14:44:18.302Z,51.90
2018-07-12T14:46:47.751Z,51.40
2018-07-12T14:49:17.129Z,52.70
2018-07-12T14:51:46.511Z,51.30
2018-07-12T14:54:15.921Z,53.30
2018-07-12T14:56:45.315Z,53.20
2018-07-12T14:59:14.682Z,53.50
2018-07-12T15:01:44.237Z,52.00
2018-07-12T15:04:13.576Z,52.80
2018-07-12T15:06:42.933Z,53.90
2018-07-12T15:09:12.341Z,53.90
2018-07-12T15:11:42.290Z,53.10
2018-07-12T15:14:11.714Z,52.80
2018-07-12T15:16:41.091Z,54.60
2018-07-12T15:19:10.549Z,53.00
2018-07-12T15:21:39.887Z,54.00
2018-07-12T15:24:09.260Z,51.80
2018-07-12T15:26:38.629Z,51.70
2018-07-12T15:29:08.015Z,53.90
2018-07-12T15:31:37.448Z,54.10
2018-07-12T15:34:06.787Z,52.70
2018-07-12T15:36:36.135Z,51.60
2018-07-12T15:39:07.399Z,51.50
2018-07-12T15:41:37.115Z,51.30
2018-07-12T15:44:06.554Z,51.80
2018-07-12T15:46:35.915Z,52.00
2018-07-12T15:49:05.331Z,51.20
2018-07-12T15:51:34.811Z,51.40
2018-07-12T15:54:04.213Z,52.20
2018-07-12T15:56:33.600Z,53.40
2018-07-12T15:59:02.975Z,53.30
2018-07-12T16:01:32.369Z,53.60
2018-07-12T16:04:01.744Z,52.80
2018-07-12T16:06:31.129Z,53.00
2018-07-12T16:09:00.441Z,53.10
2018-07-12T16:11:29.790Z,53.20
2018-07-12T16:13:59.174Z,53.70
2018-07-12T16:16:28.579Z,53.00
2018-07-12T16:18:58.407Z,53.20
2018-07-12T16:21:27.831Z,53.00
2018-07-12T16:23:57.197Z,53.10
2018-07-12T16:26:26.551Z,51.70
2018-07-12T16:28:55.920Z,52.10
2018-07-12T16:31:25.344Z,53.10
2018-07-12T16:33:54.757Z,53.10
2018-07-12T16:36:24.159Z,52.40
2018-07-12T16:38:53.562Z,52.60
2018-07-12T16:41:22.994Z,52.70
2018-07-12T16:43:52.512Z,52.50
2018-07-12T16:46:21.912Z,53.20
2018-07-12T16:48:51.742Z,53.20
2018-07-12T16:51:21.217Z,52.90
2018-07-12T16:53:50.811Z,52.80
2018-07-12T16:56:20.196Z,53.00
2018-07-12T16:58:49.557Z,52.70
2018-07-12T17:01:19.063Z,52.60
2018-07-12T17:03:48.525Z,52.20
2018-07-12T17:06:17.900Z,52.30
2018-07-12T17:08:47.346Z,51.80
2018-07-12T17:11:16.710Z,52.40
2018-07-12T17:13:46.104Z,52.50
2018-07-12T17:16:15.989Z,52.70
2018-07-12T17:18:45.720Z,52.70
2018-07-12T17:21:15.100Z,52.70
2018-07-12T17:23:44.501Z,52.90
2018-07-12T17:26:13.953Z,52.40
2018-07-12T17:28:43.373Z,52.70
2018-07-12T17:31:12.773Z,52.70
2018-07-12T17:33:42.158Z,52.60
2018-07-12T17:36:11.584Z,53.00
2018-07-12T17:38:41.054Z,52.90
2018-07-12T17:41:10.557Z,52.60
2018-07-12T17:43:40.254Z,52.80
2018-07-12T17:46:09.666Z,52.40
2018-07-12T17:48:39.046Z,52.40
2018-07-12T17:51:08.668Z,52.80
2018-07-12T17:53:38.081Z,52.50
2018-07-12T17:56:07.601Z,52.90
2018-07-12T17:58:37.087Z,53.00
2018-07-12T18:01:06.646Z,52.80
2018-07-12T18:03:36.064Z,52.70
2018-07-12T18:06:05.448Z,53.20
2018-07-12T18:08:34.926Z,53.20
2018-07-12T18:11:04.321Z,53.40
2018-07-12T18:13:33.772Z,53.50
2018-07-12T18:16:05.514Z,53.00
2018-07-12T18:18:35.714Z,53.30
2018-07-12T18:21:05.170Z,53.50
2018-07-12T18:23:34.634Z,52.90
2018-07-12T18:26:04.034Z,53.50
2018-07-12T18:28:33.386Z,53.50
2018-07-12T18:31:02.712Z,53.60
2018-07-12T18:33:32.142Z,54.80
2018-07-12T18:36:01.536Z,54.10
2018-07-12T18:41:31.511Z,54.60
2018-07-12T18:44:00.901Z,56.60
2018-07-12T18:46:30.440Z,56.80
2018-07-12T18:48:59.936Z,57.30
2018-07-12T18:51:30.009Z,57.50
2018-07-12T18:53:59.618Z,57.50
2018-07-12T18:56:29.118Z,56.70
2018-07-12T18:58:58.720Z,57.60
2018-07-12T19:01:29.047Z,57.90
2018-07-12T19:03:58.712Z,58.20
2018-07-12T19:06:28.383Z,57.90
2018-07-12T19:08:57.878Z,58.60
2018-07-12T19:11:27.341Z,58.70
2018-07-12T19:13:56.794Z,59.20
2018-07-12T19:16:27.372Z,59.00
2018-07-12T19:18:56.753Z,59.60
2018-07-12T19:21:26.185Z,59.00
2018-07-12T19:23:55.703Z,59.60
2018-07-12T19:26:25.131Z,59.60
2018-07-12T19:28:54.536Z,59.50
2018-07-12T19:31:23.979Z,59.60
2018-07-12T19:33:53.385Z,60.60
2018-07-12T19:36:22.842Z,60.50
2018-07-12T19:38:52.291Z,60.80
2018-07-12T19:41:21.670Z,60.60
2018-07-12T19:43:51.195Z,60.40
2018-07-12T19:46:20.611Z,60.50
2018-07-12T19:48:50.182Z,60.80
2018-07-12T19:51:19.612Z,61.10
2018-07-12T19:53:49.123Z,61.60
2018-07-12T19:56:18.626Z,61.50
2018-07-12T19:58:48.252Z,61.60
2018-07-12T20:01:17.734Z,62.10
2018-07-12T20:03:48.320Z,62.10
2018-07-12T20:06:17.808Z,62.20
2018-07-12T20:08:47.286Z,62.30
2018-07-12T20:11:16.758Z,62.70
2018-07-12T20:13:46.331Z,63.00
2018-07-12T20:16:15.899Z,63.20
2018-07-12T20:18:45.349Z,62.80
2018-07-12T20:21:15.018Z,63.60
2018-07-12T20:23:44.578Z,63.90
2018-07-12T20:26:14.171Z,64.40
2018-07-12T20:28:43.766Z,64.20
2018-07-12T20:31:13.493Z,64.30
2018-07-12T20:33:42.945Z,64.40
2018-07-12T20:36:12.676Z,64.40
2018-07-12T20:38:42.431Z,64.20
2018-07-12T20:41:12.053Z,64.50
2018-07-12T20:46:10.961Z,64.80
2018-07-12T20:48:41.159Z,65.30
2018-07-12T20:51:11.268Z,65.20
2018-07-12T20:53:41.223Z,65.60
2018-07-12T20:56:10.731Z,65.50
2018-07-12T20:58:40.317Z,65.60
2018-07-12T21:01:09.890Z,66.70
2018-07-12T21:03:39.361Z,65.60
2018-07-12T21:06:08.895Z,65.70
2018-07-12T21:08:38.541Z,65.70
2018-07-12T21:11:07.967Z,65.70
2018-07-12T21:13:37.462Z,65.30
2018-07-12T21:16:06.991Z,65.20
2018-07-12T21:18:36.509Z,65.40
2018-07-12T21:21:06.168Z,65.40
2018-07-12T21:23:35.988Z,65.40
2018-07-12T21:26:05.431Z,65.90
2018-07-12T21:28:34.810Z,65.60
2018-07-12T21:31:04.827Z,65.80
2018-07-12T21:33:34.439Z,66.00
2018-07-12T21:36:03.828Z,65.90
2018-07-12T21:38:33.290Z,66.10
2018-07-12T21:41:02.801Z,66.30
2018-07-12T21:43:32.374Z,66.20
2018-07-12T21:46:02.023Z,66.40
2018-07-12T21:48:31.494Z,66.50
2018-07-12T21:51:01.305Z,66.70
2018-07-12T21:53:30.797Z,66.90
2018-07-12T21:56:00.322Z,67.60
2018-07-12T21:58:29.871Z,67.00
2018-07-12T22:00:59.483Z,67.10
2018-07-12T22:03:28.934Z,67.40
2018-07-12T22:05:58.425Z,67.40
2018-07-12T22:08:28.751Z,67.40
2018-07-12T22:11:00.010Z,67.60
2018-07-12T22:15:59.281Z,68.20
2018-07-12T22:18:28.728Z,68.10
2018-07-12T22:20:58.302Z,68.00
2018-07-12T22:23:27.948Z,68.50
2018-07-12T22:25:57.492Z,65.90
2018-07-12T22:28:27.536Z,65.30
2018-07-12T22:30:57.139Z,66.00
2018-07-12T22:33:26.567Z,67.60
2018-07-12T22:35:56.361Z,68.10
2018-07-12T22:38:26.032Z,68.40
2018-07-12T22:40:55.531Z,68.40
2018-07-12T22:43:24.934Z,68.50
2018-07-12T22:45:54.536Z,68.40
2018-07-12T22:48:24.537Z,68.40
2018-07-12T22:50:53.752Z,68.80
2018-07-12T22:53:23.085Z,68.90
2018-07-12T22:55:52.633Z,69.00
2018-07-12T22:58:22.101Z,69.40
2018-07-12T23:00:51.541Z,69.20
2018-07-12T23:03:20.983Z,69.50
2018-07-12T23:05:50.401Z,69.90
2018-07-12T23:08:21.915Z,70.00
2018-07-12T23:10:51.436Z,69.40
2018-07-12T23:13:21.137Z,69.30
2018-07-12T23:15:50.584Z,69.60
2018-07-12T23:18:20.000Z,69.00
2018-07-12T23:20:50.421Z,69.30
2018-07-12T23:23:19.821Z,68.20
2018-07-12T23:25:49.268Z,68.20
2018-07-12T23:28:18.693Z,68.20
2018-07-12T23:30:48.165Z,68.60
2018-07-12T23:33:17.577Z,68.80
2018-07-12T23:35:47.037Z,68.60
2018-07-12T23:38:16.610Z,69.00
2018-07-12T23:40:46.015Z,69.30
2018-07-12T23:43:15.411Z,68.80
2018-07-12T23:45:44.806Z,69.20
2018-07-12T23:48:14.244Z,69.40
2018-07-12T23:50:43.700Z,69.60
2018-07-12T23:53:13.178Z,69.60
2018-07-12T23:55:42.606Z,69.60
2018-07-12T23:58:12.023Z,70.00
